Valtellina — ICKF — position and weather

sailwx.info

Track history (hours):
 
Tides and Currents Weather Stations Pressure Air Temp Water Temp Dewpoint Dewpoint Depression Visibility Wind Speed Wind Dir Waves Ship Positions

Valtellina

Last reported at 2016-Jun-28 20:19 UTC. Time now 2016-Jun-29 00:14 UTC.
Position N 34°32' E 031°42'.

Length 184 m; draft 7.5 m.

Type: Ship (hazmat cat A). MMSI: 247243900.

Date/timePositionNaut miles runAvg speedWind from/ knotsBaromVisibWave heightAir tempDewpointWater temp
2016-Jun-28 20:19N 34°32' E 031°42'4812.2
2016-Jun-28 16:24N 34°31' E 032°40'1011.9
2016-Jun-28 15:33N 34°30' E 032°52'1111.4
2016-Jun-28 14:33N 34°30' E 033°06'1111.5
2016-Jun-28 13:33N 34°38' E 033°16'5 5.2
2016-Jun-28 12:33N 34°42' E 033°20'0 0.0
2016-Jun-28 11:33N 34°42' E 033°20'0 0.0
2016-Jun-28 10:33N 34°42' E 033°20'0 0.0
2016-Jun-28 09:33N 34°42' E 033°20'1 0.0
2016-Jun-27 14:30N 34°43' E 033°19'0 0.0
2016-Jun-27 13:33N 34°43' E 033°19'0 0.0
2016-Jun-27 12:09N 34°43' E 033°19'0 0.0
2016-Jun-27 11:33N 34°43' E 033°19'0 0.0
2016-Jun-27 08:09N 34°43' E 033°19'0 0.0
2016-Jun-27 07:30N 34°43' E 033°19'0 0.0
2016-Jun-27 06:33N 34°43' E 033°19'0 0.0
2016-Jun-27 03:33N 34°43' E 033°19'1 1.2
2016-Jun-27 02:33N 34°41' E 033°20'4 4.3
2016-Jun-27 01:33N 34°38' E 033°16'1211.8
2016-Jun-27 00:33N 34°30' E 033°06'1211.6
2016-Jun-26 23:33N 34°29' E 032°52'1211.8
2016-Jun-26 22:33N 34°30' E 032°37'1211.6
2016-Jun-26 21:33N 34°30' E 032°23'1211.8
2016-Jun-26 20:33N 34°30' E 032°09'1211.9
2016-Jun-26 19:33N 34°30' E 031°54'1212.0
2016-Jun-26 18:33N 34°31' E 031°40'1212.0
2016-Jun-26 17:33N 34°31' E 031°25'2512.3
2016-Jun-26 15:29N 34°31' E 030°54'1212.4
2016-Jun-26 14:33N 34°32' E 030°40'1312.5
2016-Jun-26 13:32N 34°32' E 030°25'1512.5
2016-Jun-26 12:21N 34°33' E 030°07'  
2016-Jun-23 22:33N 36°36' E 014°42'1212.4
2016-Jun-23 21:33N 36°41' E 014°28'1312.8
2016-Jun-23 20:33N 36°47' E 014°14'1313.0
2016-Jun-23 19:33N 36°53' E 013°60'1312.6
2016-Jun-23 18:30N 36°60' E 013°45'7412.1
2016-Jun-23 12:21N 37°36' E 012°23'1314.3
2016-Jun-23 11:28N 37°42' E 012°10'14612.2
2016-Jun-22 23:29N 38°36' E 009°18'1111.7
2016-Jun-22 22:32N 38°40' E 009°04'1211.7
2016-Jun-22 21:33N 38°44' E 008°50'16511.7
2016-Jun-22 07:30N 40°57' E 006°45'1212.9
2016-Jun-22 06:33N 41°07' E 006°36'3012.7
2016-Jun-22 04:12N 41°33' E 006°17'912.6
2016-Jun-22 03:31N 41°41' E 006°11'1312.8
2016-Jun-22 02:33N 41°51' E 006°03'1513.0
2016-Jun-22 01:21N 42°05' E 005°52'1012.9
2016-Jun-22 00:33N 42°14' E 005°46'4112.8
2016-Jun-21 21:22N 42°50' E 005°18'1012.6
2016-Jun-21 20:33N 42°59' E 005°11'1212.6
2016-Jun-21 19:33N 43°09' E 005°03'1111.0
2016-Jun-21 18:33N 43°20' E 004°57'1 1.4
2016-Jun-21 17:32N 43°21' E 004°56'0 0.1
2016-Jun-21 16:32N 43°21' E 004°56'0 0.1
2016-Jun-21 15:32N 43°21' E 004°56'0 0.0
2016-Jun-21 14:32N 43°21' E 004°56'0 0.0
2016-Jun-21 13:32N 43°21' E 004°56'0 0.0
2016-Jun-21 12:32N 43°21' E 004°56'0 0.0
2016-Jun-21 11:23N 43°21' E 004°56'0 0.1
2016-Jun-21 10:29N 43°21' E 004°56'0 0.1
2016-Jun-21 09:32N 43°21' E 004°56'0 0.0
2016-Jun-21 08:32N 43°21' E 004°56'0 0.0
2016-Jun-21 07:32N 43°21' E 004°56'0 0.0
2016-Jun-21 04:26N 43°21' E 004°56'0 0.0
2016-Jun-21 03:32N 43°21' E 004°56'0 0.0
2016-Jun-21 02:29N 43°21' E 004°56'0 0.0
2016-Jun-21 01:32N 43°21' E 004°56'0 0.0
2016-Jun-21 00:32N 43°21' E 004°56'0 0.0
2016-Jun-20 23:32N 43°21' E 004°56'0 0.0
2016-Jun-20 22:32N 43°21' E 004°56'0 0.0
2016-Jun-20 21:32N 43°21' E 004°56'0 0.0
2016-Jun-20 20:32N 43°21' E 004°56'0 0.0
2016-Jun-20 19:32N 43°21' E 004°56'0 0.1
2016-Jun-20 18:32N 43°21' E 004°56'0 0.0
2016-Jun-20 17:32N 43°21' E 004°56'0 0.0
2016-Jun-20 16:32N 43°21' E 004°56'0 0.0
2016-Jun-20 15:32N 43°21' E 004°56'0 0.1
2016-Jun-20 14:32N 43°21' E 004°56'0 0.0
2016-Jun-20 13:32N 43°21' E 004°56'0 0.0
2016-Jun-20 12:32N 43°21' E 004°56'0 0.0
2016-Jun-20 11:32N 43°21' E 004°56'0 0.1
2016-Jun-20 10:29N 43°21' E 004°56'0 0.0
2016-Jun-20 09:32N 43°21' E 004°56'0 0.0
2016-Jun-20 08:32N 43°21' E 004°56'0 0.1
2016-Jun-20 07:32N 43°21' E 004°56'0 0.0
2016-Jun-20 06:32N 43°21' E 004°56'0 0.0
2016-Jun-20 05:32N 43°21' E 004°56'0 0.0
2016-Jun-20 04:32N 43°21' E 004°56'0 0.0
2016-Jun-20 03:32N 43°21' E 004°56'0 0.0
2016-Jun-20 02:32N 43°21' E 004°56'0 0.0
2016-Jun-20 01:32N 43°21' E 004°56'0 0.0
2016-Jun-20 00:32N 43°21' E 004°56'0 0.0
2016-Jun-19 23:32N 43°21' E 004°56'0 0.0
2016-Jun-19 22:32N 43°21' E 004°56'0 0.0
2016-Jun-19 21:32N 43°21' E 004°56'0 0.0
2016-Jun-19 20:32N 43°21' E 004°56'0 0.0
2016-Jun-19 19:32N 43°21' E 004°56'0 0.0
2016-Jun-19 18:32N 43°21' E 004°56'0 0.0
2016-Jun-19 17:32N 43°21' E 004°56'0 0.0
2016-Jun-19 16:29N 43°21' E 004°56'0 0.0
2016-Jun-19 15:26N 43°21' E 004°56'0 0.0
2016-Jun-19 14:32N 43°21' E 004°56'0 0.0
2016-Jun-19 13:32N 43°21' E 004°56'0 0.0
2016-Jun-19 12:32N 43°21' E 004°56'0 0.0
2016-Jun-19 11:32N 43°21' E 004°56'0 0.0
2016-Jun-19 10:32N 43°21' E 004°56'0 0.0
2016-Jun-19 09:32N 43°21' E 004°56'0 0.0
2016-Jun-19 08:32N 43°21' E 004°56'0 0.0
2016-Jun-19 07:32N 43°21' E 004°56'0 0.0
2016-Jun-19 06:32N 43°21' E 004°56'0 0.0
2016-Jun-19 05:32N 43°21' E 004°56'0 0.0
2016-Jun-19 04:32N 43°21' E 004°56'0 0.0
2016-Jun-19 03:32N 43°21' E 004°56'0 0.0
2016-Jun-19 02:32N 43°21' E 004°56'0 0.0
2016-Jun-19 01:32N 43°21' E 004°56'0 0.0
2016-Jun-19 00:32N 43°21' E 004°56'0 0.0
2016-Jun-18 23:32N 43°21' E 004°56'0 0.0
2016-Jun-18 22:32N 43°21' E 004°56'0 0.0
2016-Jun-18 21:32N 43°21' E 004°56'0 0.0
2016-Jun-18 20:32N 43°21' E 004°56'  
Track history (hours):
 
Tides and Currents Weather Stations Pressure Air Temp Water Temp Dewpoint Dewpoint Depression Visibility Wind Speed Wind Dir Waves Ship Positions

Valtellina

Last reported at 2016-Jun-28 20:19 UTC. Time now 2016-Jun-29 00:14 UTC.
Position N 34°32' E 031°42'.

Length 184 m; draft 7.5 m.

Type: Ship (hazmat cat A). MMSI: 247243900.

Date/timePositionNaut miles runAvg speedWind from/ knotsBaromVisibWave heightAir tempDewpointWater temp
2016-Jun-28 20:19N 34°32' E 031°42'4812.2
2016-Jun-28 16:24N 34°31' E 032°40'1011.9
2016-Jun-28 15:33N 34°30' E 032°52'1111.4
2016-Jun-28 14:33N 34°30' E 033°06'1111.5
2016-Jun-28 13:33N 34°38' E 033°16'5 5.2
2016-Jun-28 12:33N 34°42' E 033°20'0 0.0
2016-Jun-28 11:33N 34°42' E 033°20'0 0.0
2016-Jun-28 10:33N 34°42' E 033°20'0 0.0
2016-Jun-28 09:33N 34°42' E 033°20'1 0.0
2016-Jun-27 14:30N 34°43' E 033°19'0 0.0
2016-Jun-27 13:33N 34°43' E 033°19'0 0.0
2016-Jun-27 12:09N 34°43' E 033°19'0 0.0
2016-Jun-27 11:33N 34°43' E 033°19'0 0.0
2016-Jun-27 08:09N 34°43' E 033°19'0 0.0
2016-Jun-27 07:30N 34°43' E 033°19'0 0.0
2016-Jun-27 06:33N 34°43' E 033°19'0 0.0
2016-Jun-27 03:33N 34°43' E 033°19'1 1.2
2016-Jun-27 02:33N 34°41' E 033°20'4 4.3
2016-Jun-27 01:33N 34°38' E 033°16'1211.8
2016-Jun-27 00:33N 34°30' E 033°06'1211.6
2016-Jun-26 23:33N 34°29' E 032°52'1211.8
2016-Jun-26 22:33N 34°30' E 032°37'1211.6
2016-Jun-26 21:33N 34°30' E 032°23'1211.8
2016-Jun-26 20:33N 34°30' E 032°09'1211.9
2016-Jun-26 19:33N 34°30' E 031°54'1212.0
2016-Jun-26 18:33N 34°31' E 031°40'1212.0
2016-Jun-26 17:33N 34°31' E 031°25'2512.3
2016-Jun-26 15:29N 34°31' E 030°54'1212.4
2016-Jun-26 14:33N 34°32' E 030°40'1312.5
2016-Jun-26 13:32N 34°32' E 030°25'1512.5
2016-Jun-26 12:21N 34°33' E 030°07'  
2016-Jun-23 22:33N 36°36' E 014°42'1212.4
2016-Jun-23 21:33N 36°41' E 014°28'1312.8
2016-Jun-23 20:33N 36°47' E 014°14'1313.0
2016-Jun-23 19:33N 36°53' E 013°60'1312.6
2016-Jun-23 18:30N 36°60' E 013°45'7412.1
2016-Jun-23 12:21N 37°36' E 012°23'1314.3
2016-Jun-23 11:28N 37°42' E 012°10'14612.2
2016-Jun-22 23:29N 38°36' E 009°18'1111.7
2016-Jun-22 22:32N 38°40' E 009°04'1211.7
2016-Jun-22 21:33N 38°44' E 008°50'16511.7
2016-Jun-22 07:30N 40°57' E 006°45'1212.9
2016-Jun-22 06:33N 41°07' E 006°36'3012.7
2016-Jun-22 04:12N 41°33' E 006°17'912.6
2016-Jun-22 03:31N 41°41' E 006°11'1312.8
2016-Jun-22 02:33N 41°51' E 006°03'1513.0
2016-Jun-22 01:21N 42°05' E 005°52'1012.9
2016-Jun-22 00:33N 42°14' E 005°46'4112.8
2016-Jun-21 21:22N 42°50' E 005°18'1012.6
2016-Jun-21 20:33N 42°59' E 005°11'1212.6
2016-Jun-21 19:33N 43°09' E 005°03'1111.0
2016-Jun-21 18:33N 43°20' E 004°57'1 1.4
2016-Jun-21 17:32N 43°21' E 004°56'0 0.1
2016-Jun-21 16:32N 43°21' E 004°56'0 0.1
2016-Jun-21 15:32N 43°21' E 004°56'0 0.0
2016-Jun-21 14:32N 43°21' E 004°56'0 0.0
2016-Jun-21 13:32N 43°21' E 004°56'0 0.0
2016-Jun-21 12:32N 43°21' E 004°56'0 0.0
2016-Jun-21 11:23N 43°21' E 004°56'0 0.1
2016-Jun-21 10:29N 43°21' E 004°56'0 0.1
2016-Jun-21 09:32N 43°21' E 004°56'0 0.0
2016-Jun-21 08:32N 43°21' E 004°56'0 0.0
2016-Jun-21 07:32N 43°21' E 004°56'0 0.0
2016-Jun-21 04:26N 43°21' E 004°56'0 0.0
2016-Jun-21 03:32N 43°21' E 004°56'0 0.0
2016-Jun-21 02:29N 43°21' E 004°56'0 0.0
2016-Jun-21 01:32N 43°21' E 004°56'0 0.0
2016-Jun-21 00:32N 43°21' E 004°56'0 0.0
2016-Jun-20 23:32N 43°21' E 004°56'0 0.0
2016-Jun-20 22:32N 43°21' E 004°56'0 0.0
2016-Jun-20 21:32N 43°21' E 004°56'0 0.0
2016-Jun-20 20:32N 43°21' E 004°56'0 0.0
2016-Jun-20 19:32N 43°21' E 004°56'0 0.1
2016-Jun-20 18:32N 43°21' E 004°56'0 0.0
2016-Jun-20 17:32N 43°21' E 004°56'0 0.0
2016-Jun-20 16:32N 43°21' E 004°56'0 0.0
2016-Jun-20 15:32N 43°21' E 004°56'0 0.1
2016-Jun-20 14:32N 43°21' E 004°56'0 0.0
2016-Jun-20 13:32N 43°21' E 004°56'0 0.0
2016-Jun-20 12:32N 43°21' E 004°56'0 0.0
2016-Jun-20 11:32N 43°21' E 004°56'0 0.1
2016-Jun-20 10:29N 43°21' E 004°56'0 0.0
2016-Jun-20 09:32N 43°21' E 004°56'0 0.0
2016-Jun-20 08:32N 43°21' E 004°56'0 0.1
2016-Jun-20 07:32N 43°21' E 004°56'0 0.0
2016-Jun-20 06:32N 43°21' E 004°56'0 0.0
2016-Jun-20 05:32N 43°21' E 004°56'0 0.0
2016-Jun-20 04:32N 43°21' E 004°56'0 0.0
2016-Jun-20 03:32N 43°21' E 004°56'0 0.0
2016-Jun-20 02:32N 43°21' E 004°56'0 0.0
2016-Jun-20 01:32N 43°21' E 004°56'0 0.0
2016-Jun-20 00:32N 43°21' E 004°56'0 0.0
2016-Jun-19 23:32N 43°21' E 004°56'0 0.0
2016-Jun-19 22:32N 43°21' E 004°56'0 0.0
2016-Jun-19 21:32N 43°21' E 004°56'0 0.0
2016-Jun-19 20:32N 43°21' E 004°56'0 0.0
2016-Jun-19 19:32N 43°21' E 004°56'0 0.0
2016-Jun-19 18:32N 43°21' E 004°56'0 0.0
2016-Jun-19 17:32N 43°21' E 004°56'0 0.0
2016-Jun-19 16:29N 43°21' E 004°56'0 0.0
2016-Jun-19 15:26N 43°21' E 004°56'0 0.0
2016-Jun-19 14:32N 43°21' E 004°56'0 0.0
2016-Jun-19 13:32N 43°21' E 004°56'0 0.0
2016-Jun-19 12:32N 43°21' E 004°56'0 0.0
2016-Jun-19 11:32N 43°21' E 004°56'0 0.0
2016-Jun-19 10:32N 43°21' E 004°56'0 0.0
2016-Jun-19 09:32N 43°21' E 004°56'0 0.0
2016-Jun-19 08:32N 43°21' E 004°56'0 0.0
2016-Jun-19 07:32N 43°21' E 004°56'0 0.0
2016-Jun-19 06:32N 43°21' E 004°56'0 0.0
2016-Jun-19 05:32N 43°21' E 004°56'0 0.0
2016-Jun-19 04:32N 43°21' E 004°56'0 0.0
2016-Jun-19 03:32N 43°21' E 004°56'0 0.0
2016-Jun-19 02:32N 43°21' E 004°56'0 0.0
2016-Jun-19 01:32N 43°21' E 004°56'0 0.0
2016-Jun-19 00:32N 43°21' E 004°56'0 0.0
2016-Jun-18 23:32N 43°21' E 004°56'0 0.0
2016-Jun-18 22:32N 43°21' E 004°56'0 0.0
2016-Jun-18 21:32N 43°21' E 004°56'0 0.0
2016-Jun-18 20:32N 43°21' E 004°56'  

Dump ship's entire track history